createdAt,value
2023-04-25T00:00:04.621Z,8.25
2023-04-25T00:02:36.415Z,8.25
2023-04-25T00:05:08.318Z,8.26
2023-04-25T00:07:39.828Z,8.21
2023-04-25T00:10:12.654Z,8.14
2023-04-25T00:12:45.040Z,8.09
2023-04-25T00:15:16.982Z,7.94
2023-04-25T00:17:48.540Z,7.82
2023-04-25T00:20:19.900Z,7.83
2023-04-25T00:22:51.859Z,7.71
2023-04-25T00:25:23.225Z,7.62
2023-04-25T00:27:54.501Z,7.61
2023-04-25T00:30:25.799Z,7.44
2023-04-25T00:32:57.194Z,7.27
2023-04-25T00:35:28.474Z,7.43
2023-04-25T00:38:00.475Z,7.38
2023-04-25T00:40:31.753Z,7.29
2023-04-25T00:43:03.133Z,7.29
2023-04-25T00:45:39.208Z,7.21
2023-04-25T00:48:10.767Z,7.25
2023-04-25T00:50:42.470Z,7.17
2023-04-25T00:53:13.751Z,7.17
2023-04-25T00:55:45.373Z,7.14
2023-04-25T00:58:16.731Z,7.08
2023-04-25T01:00:49.626Z,7.08
2023-04-25T01:03:21.734Z,7.11
2023-04-25T01:05:53.194Z,7.11
2023-04-25T01:08:28.359Z,7.07
2023-04-25T01:10:59.615Z,6.96
2023-04-25T01:13:32.866Z,7.07
2023-04-25T01:16:04.635Z,7.04
2023-04-25T01:18:37.122Z,7.06
2023-04-25T01:21:10.768Z,7.09
2023-04-25T01:23:42.996Z,7.08
2023-04-25T01:26:14.714Z,6.99
2023-04-25T01:28:46.262Z,6.94
2023-04-25T01:31:17.825Z,6.93
2023-04-25T01:33:49.364Z,7.01
2023-04-25T01:36:21.841Z,6.91
2023-04-25T01:38:53.299Z,7.00
2023-04-25T01:41:24.615Z,6.95
2023-04-25T01:43:56.211Z,6.94
2023-04-25T01:46:28.067Z,6.92
2023-04-25T01:48:59.474Z,6.88
2023-04-25T01:51:31.363Z,6.71
2023-04-25T01:54:02.831Z,6.70
2023-04-25T01:56:37.287Z,6.80
2023-04-25T01:59:08.714Z,6.64
2023-04-25T02:01:40.220Z,6.76
2023-04-25T02:04:11.766Z,6.76
2023-04-25T02:06:43.167Z,6.74
2023-04-25T02:09:14.448Z,6.70
2023-04-25T02:11:45.799Z,6.63
2023-04-25T02:14:17.073Z,6.61
2023-04-25T02:16:48.464Z,6.60
2023-04-25T02:19:19.809Z,6.59
2023-04-25T02:21:51.199Z,6.59
2023-04-25T02:24:22.952Z,6.54
2023-04-25T02:26:54.287Z,6.43
2023-04-25T02:29:25.699Z,6.53
2023-04-25T02:31:57.050Z,6.57
2023-04-25T02:34:28.361Z,6.54
2023-04-25T02:36:59.620Z,6.68
2023-04-25T02:39:30.984Z,6.73
2023-04-25T02:42:02.286Z,6.69
2023-04-25T02:44:33.568Z,6.74
2023-04-25T02:47:04.911Z,6.77
2023-04-25T02:49:36.236Z,6.77
2023-04-25T02:52:07.715Z,6.66
2023-04-25T02:54:39.802Z,6.78
2023-04-25T02:57:11.084Z,6.67
2023-04-25T02:59:42.453Z,6.72
2023-04-25T03:02:13.783Z,6.70
2023-04-25T03:04:45.105Z,6.65
2023-04-25T03:07:16.395Z,6.64
2023-04-25T03:09:47.676Z,6.61
2023-04-25T03:12:19.150Z,6.57
2023-04-25T03:14:50.622Z,6.49
2023-04-25T03:17:21.938Z,6.51
2023-04-25T03:19:53.246Z,6.38
2023-04-25T03:22:24.903Z,6.03
2023-04-25T03:24:56.404Z,6.00
2023-04-25T03:27:27.740Z,5.80
2023-04-25T03:29:59.021Z,5.69
2023-04-25T03:32:30.840Z,5.57
2023-04-25T03:35:02.151Z,5.46
2023-04-25T03:37:33.506Z,5.24
2023-04-25T03:40:05.466Z,5.36
2023-04-25T03:42:36.730Z,5.30
2023-04-25T03:45:08.883Z,5.01
2023-04-25T03:47:40.501Z,5.17
2023-04-25T03:50:11.888Z,5.13
2023-04-25T03:52:44.081Z,5.10
2023-04-25T03:55:15.419Z,5.04
2023-04-25T03:57:46.720Z,4.98
2023-04-25T04:00:18.069Z,4.93
2023-04-25T04:02:49.438Z,4.89
2023-04-25T04:05:21.019Z,4.76
2023-04-25T04:07:52.410Z,4.97
2023-04-25T04:10:23.851Z,4.84
2023-04-25T04:12:55.132Z,5.19
2023-04-25T04:15:27.503Z,5.25
2023-04-25T04:18:03.317Z,5.40
2023-04-25T04:20:34.634Z,5.49
2023-04-25T04:23:06.443Z,5.48
2023-04-25T04:25:37.888Z,5.69
2023-04-25T04:28:09.313Z,5.78
2023-04-25T04:30:42.090Z,5.82
2023-04-25T04:33:14.610Z,5.84
2023-04-25T04:35:47.725Z,5.88
2023-04-25T04:38:19.520Z,5.93
2023-04-25T04:40:51.242Z,5.96
2023-04-25T04:43:23.955Z,6.00
2023-04-25T04:45:57.220Z,6.02
2023-04-25T04:48:29.185Z,6.00
2023-04-25T04:51:01.155Z,6.01
2023-04-25T04:53:33.269Z,5.99
2023-04-25T04:56:05.457Z,6.04
2023-04-25T04:58:37.552Z,5.97
2023-04-25T05:01:08.964Z,6.19
2023-04-25T05:03:40.655Z,6.32
2023-04-25T05:06:12.303Z,6.45
2023-04-25T05:08:43.562Z,6.53
2023-04-25T05:11:14.945Z,6.59
2023-04-25T05:13:46.667Z,6.58
2023-04-25T05:16:18.010Z,6.45
2023-04-25T05:18:49.407Z,6.45
2023-04-25T05:21:21.050Z,6.54
2023-04-25T05:23:52.659Z,6.38
2023-04-25T05:26:24.852Z,6.47
2023-04-25T05:28:56.132Z,6.49
2023-04-25T05:31:27.628Z,6.52
2023-04-25T05:33:59.206Z,6.43
2023-04-25T05:36:31.870Z,6.52
2023-04-25T05:39:05.195Z,6.45
2023-04-25T05:41:36.498Z,6.51
2023-04-25T05:44:07.909Z,6.59
2023-04-25T05:46:39.453Z,6.50
2023-04-25T05:49:10.860Z,6.57
2023-04-25T05:51:42.163Z,6.71
2023-04-25T05:54:13.543Z,6.73
2023-04-25T05:56:44.815Z,6.84
2023-04-25T05:59:16.456Z,6.82
2023-04-25T06:01:47.989Z,6.98
2023-04-25T06:04:19.557Z,6.83
2023-04-25T06:06:51.107Z,7.01
2023-04-25T06:09:22.562Z,7.12
2023-04-25T06:11:53.907Z,7.17
2023-04-25T06:14:26.349Z,7.27
2023-04-25T06:16:58.638Z,7.32
2023-04-25T06:19:30.133Z,7.36
2023-04-25T06:22:01.512Z,7.33
2023-04-25T06:24:32.932Z,7.41
2023-04-25T06:27:04.276Z,7.37
2023-04-25T06:29:35.765Z,7.46
2023-04-25T06:32:07.148Z,7.68
2023-04-25T06:34:38.496Z,7.91
2023-04-25T06:37:09.966Z,8.02
2023-04-25T06:39:41.465Z,8.01
2023-04-25T06:42:12.899Z,7.98
2023-04-25T06:44:44.361Z,8.20
2023-04-25T06:47:15.798Z,8.23
2023-04-25T06:49:47.238Z,8.26
2023-04-25T06:52:19.042Z,8.25
2023-04-25T06:54:50.568Z,8.30
2023-04-25T06:57:22.020Z,8.43
2023-04-25T06:59:53.338Z,8.45
2023-04-25T07:02:24.838Z,8.62
2023-04-25T07:05:00.348Z,8.79
2023-04-25T07:07:31.761Z,8.84
2023-04-25T07:10:03.484Z,8.74
2023-04-25T07:12:34.773Z,8.60
2023-04-25T07:15:07.082Z,8.56
2023-04-25T07:17:39.047Z,8.34
2023-04-25T07:20:11.042Z,8.00
2023-04-25T07:22:42.556Z,7.96
2023-04-25T07:25:13.933Z,7.72
2023-04-25T07:27:45.504Z,8.15
2023-04-25T07:30:16.941Z,8.40
2023-04-25T07:32:48.491Z,8.77
2023-04-25T07:35:19.866Z,8.85
2023-04-25T07:37:51.348Z,8.92
2023-04-25T07:40:23.662Z,8.87
2023-04-25T07:42:55.197Z,8.70
2023-04-25T07:45:26.903Z,8.89
2023-04-25T07:47:58.346Z,9.05
2023-04-25T07:50:29.703Z,9.14
2023-04-25T07:53:01.179Z,9.08
2023-04-25T07:55:32.539Z,9.15
2023-04-25T07:58:03.815Z,9.19
2023-04-25T08:00:35.689Z,9.29
2023-04-25T08:03:07.651Z,9.34
2023-04-25T08:05:39.361Z,9.54
2023-04-25T08:08:10.871Z,9.32
2023-04-25T08:10:43.204Z,9.46
2023-04-25T08:13:14.701Z,9.42
2023-04-25T08:15:46.218Z,9.29
2023-04-25T08:18:18.110Z,9.41
2023-04-25T08:20:49.493Z,9.89
2023-04-25T08:23:20.972Z,9.96
2023-04-25T08:25:52.306Z,10.18
2023-04-25T08:28:23.760Z,10.35
2023-04-25T08:30:55.253Z,10.58
2023-04-25T08:33:26.743Z,10.90
2023-04-25T08:35:58.216Z,10.71
2023-04-25T08:38:29.670Z,10.22
2023-04-25T08:41:04.343Z,9.49
2023-04-25T08:43:36.020Z,8.67
2023-04-25T08:46:08.876Z,8.43
2023-04-25T08:48:41.751Z,8.27
2023-04-25T08:51:40.346Z,8.47
2023-04-25T08:56:49.173Z,8.79
2023-04-25T08:59:20.775Z,8.93
2023-04-25T09:01:52.342Z,9.06
2023-04-25T09:04:23.794Z,9.08
2023-04-25T09:06:55.348Z,9.10
2023-04-25T09:09:26.701Z,9.56
2023-04-25T09:11:58.973Z,9.82
2023-04-25T09:14:30.344Z,9.84
2023-04-25T09:17:06.138Z,9.92
2023-04-25T09:19:42.265Z,9.90
2023-04-25T09:22:13.984Z,10.15
2023-04-25T09:24:51.001Z,10.29
2023-04-25T09:27:24.057Z,10.59
2023-04-25T09:30:02.710Z,10.79
2023-04-25T09:32:34.180Z,10.93
2023-04-25T09:35:06.156Z,10.41
2023-04-25T09:37:37.771Z,9.89
2023-04-25T09:40:11.482Z,8.56
2023-04-25T09:42:43.384Z,7.18
2023-04-25T09:45:16.076Z,6.31
2023-04-25T09:47:47.508Z,5.78
2023-04-25T09:50:20.500Z,5.62
2023-04-25T09:53:05.765Z,5.77
2023-04-25T09:55:38.742Z,6.00
2023-04-25T09:58:12.381Z,6.16
2023-04-25T10:00:44.040Z,6.33
2023-04-25T10:03:16.736Z,6.48
2023-04-25T10:05:50.193Z,6.65
2023-04-25T10:08:23.564Z,6.97
2023-04-25T10:10:56.253Z,7.32
2023-04-25T10:13:29.428Z,7.32
2023-04-25T10:16:04.456Z,7.73
2023-04-25T10:18:35.919Z,7.81
2023-04-25T10:21:08.051Z,7.96
2023-04-25T10:23:40.796Z,7.87
2023-04-25T10:26:13.801Z,7.96
2023-04-25T10:28:58.776Z,8.04
2023-04-25T10:31:31.853Z,8.12
2023-04-25T10:34:03.499Z,8.26
2023-04-25T10:36:35.060Z,8.57
2023-04-25T10:39:08.348Z,9.04
2023-04-25T10:41:59.815Z,9.39
2023-04-25T10:44:32.022Z,9.80
2023-04-25T10:47:06.643Z,10.10
2023-04-25T10:49:42.868Z,10.31
2023-04-25T10:52:23.846Z,10.00
2023-04-25T10:54:56.952Z,9.64
2023-04-25T10:57:40.710Z,9.14
2023-04-25T11:00:17.012Z,8.43
2023-04-25T11:02:49.475Z,7.83
2023-04-25T11:05:36.316Z,7.41
2023-04-25T11:08:15.019Z,7.08
2023-04-25T11:10:46.338Z,6.87
2023-04-25T11:13:19.194Z,6.91
2023-04-25T11:16:03.291Z,7.10
2023-04-25T11:18:44.950Z,7.39
2023-04-25T11:21:22.366Z,7.74
2023-04-25T11:23:55.617Z,8.16
2023-04-25T11:26:27.029Z,8.63
2023-04-25T11:29:00.546Z,8.67
2023-04-25T11:31:32.067Z,8.89
2023-04-25T11:34:03.524Z,9.17
2023-04-25T11:36:34.924Z,9.41
2023-04-25T11:39:06.879Z,9.60
2023-04-25T11:41:39.090Z,9.83
2023-04-25T11:44:11.316Z,10.11
2023-04-25T11:46:43.541Z,10.55
2023-04-25T11:49:15.764Z,10.83
2023-04-25T11:51:48.735Z,10.98
2023-04-25T11:54:20.661Z,10.98
2023-04-25T11:56:51.990Z,10.95
2023-04-25T11:59:27.382Z,10.70
2023-04-25T12:01:58.834Z,10.44
2023-04-25T12:04:33.380Z,10.13
2023-04-25T12:07:04.965Z,9.71
2023-04-25T12:09:36.388Z,9.54
2023-04-25T12:12:10.865Z,9.72
2023-04-25T12:14:49.241Z,9.82
2023-04-25T12:17:20.569Z,9.92
2023-04-25T12:19:51.858Z,10.19
2023-04-25T12:22:24.976Z,10.40
2023-04-25T12:24:59.297Z,10.25
2023-04-25T12:27:32.479Z,10.34
2023-04-25T12:30:04.696Z,10.55
2023-04-25T12:32:36.761Z,10.95
2023-04-25T12:35:08.545Z,11.57
2023-04-25T12:37:39.846Z,11.83
2023-04-25T12:40:11.380Z,11.34
2023-04-25T12:42:42.632Z,10.80
2023-04-25T12:45:13.971Z,10.40
2023-04-25T12:47:45.372Z,9.98
2023-04-25T12:50:17.110Z,9.55
2023-04-25T12:52:48.398Z,9.39
2023-04-25T12:55:19.688Z,9.29
2023-04-25T12:57:50.996Z,9.38
2023-04-25T13:00:22.389Z,9.48
2023-04-25T13:02:53.969Z,9.70
2023-04-25T13:05:26.259Z,9.83
2023-04-25T13:07:58.005Z,9.97
2023-04-25T13:10:29.436Z,10.22
2023-04-25T13:13:01.875Z,10.16
2023-04-25T13:15:33.389Z,10.41
2023-04-25T13:18:06.489Z,10.86
2023-04-25T13:20:38.048Z,10.89
2023-04-25T13:23:09.324Z,10.81
2023-04-25T13:25:40.928Z,10.69
2023-04-25T13:28:12.214Z,10.65
2023-04-25T13:30:43.720Z,10.48
2023-04-25T13:33:15.785Z,10.68
2023-04-25T13:35:54.910Z,10.89
2023-04-25T13:38:26.697Z,10.90
2023-04-25T13:40:58.042Z,11.01
2023-04-25T13:43:29.607Z,11.11
2023-04-25T13:46:01.242Z,11.29
2023-04-25T13:48:32.559Z,11.11
2023-04-25T13:51:04.143Z,10.69
2023-04-25T13:53:35.795Z,10.20
2023-04-25T13:56:07.276Z,9.97
2023-04-25T13:58:38.891Z,9.75
2023-04-25T14:01:10.224Z,9.55
2023-04-25T14:03:42.271Z,9.51
2023-04-25T14:06:14.554Z,9.46
2023-04-25T14:08:45.869Z,9.61
2023-04-25T14:11:18.935Z,9.98
2023-04-25T14:13:50.926Z,10.28
2023-04-25T14:16:23.947Z,10.30
2023-04-25T14:18:55.476Z,10.45
2023-04-25T14:21:27.876Z,10.51
2023-04-25T14:23:59.255Z,10.52
2023-04-25T14:26:31.250Z,10.35
2023-04-25T14:29:02.765Z,10.42
2023-04-25T14:31:34.611Z,10.43
2023-04-25T14:34:06.498Z,10.51
2023-04-25T14:36:37.902Z,10.29
2023-04-25T14:39:09.733Z,10.04
2023-04-25T14:41:41.086Z,10.06
2023-04-25T14:44:12.427Z,9.80
2023-04-25T14:46:43.932Z,9.59
2023-04-25T14:49:15.498Z,9.83
2023-04-25T14:51:46.866Z,9.76
2023-04-25T14:54:18.146Z,9.80
2023-04-25T14:56:49.583Z,9.74
2023-04-25T14:59:21.385Z,9.60
2023-04-25T15:01:52.847Z,9.55
2023-04-25T15:04:24.306Z,9.70
2023-04-25T15:06:55.874Z,9.83
2023-04-25T15:09:27.194Z,9.90
2023-04-25T15:11:58.955Z,9.67
2023-04-25T15:14:30.526Z,9.72
2023-04-25T15:17:02.150Z,9.75
2023-04-25T15:19:33.649Z,9.83
2023-04-25T15:22:06.802Z,9.96
2023-04-25T15:24:38.153Z,10.18
2023-04-25T15:27:09.519Z,10.25
2023-04-25T15:29:41.146Z,10.30
2023-04-25T15:32:12.496Z,10.26
2023-04-25T15:34:43.777Z,10.11
2023-04-25T15:37:15.064Z,10.02
2023-04-25T15:39:46.406Z,10.09
2023-04-25T15:42:17.864Z,10.14
2023-04-25T15:44:49.247Z,10.39
2023-04-25T15:47:20.598Z,10.38
2023-04-25T15:49:52.009Z,10.78
2023-04-25T15:52:23.410Z,10.81
2023-04-25T15:54:54.844Z,10.53
2023-04-25T15:57:26.200Z,10.20
2023-04-25T15:59:57.853Z,9.97
2023-04-25T16:02:30.607Z,9.86
2023-04-25T16:05:03.471Z,9.81
2023-04-25T16:07:35.541Z,9.93
2023-04-25T16:10:07.685Z,10.10
2023-04-25T16:12:40.551Z,10.01
2023-04-25T16:15:11.863Z,9.85
2023-04-25T16:17:43.267Z,9.67
2023-04-25T16:20:15.261Z,9.68
2023-04-25T16:22:47.681Z,9.52
2023-04-25T16:25:19.044Z,9.25
2023-04-25T16:27:50.341Z,9.16
2023-04-25T16:30:21.737Z,9.11
2023-04-25T16:32:53.221Z,9.07
2023-04-25T16:35:25.377Z,8.98
2023-04-25T16:37:56.647Z,9.15
2023-04-25T16:40:28.146Z,9.20
2023-04-25T16:42:59.483Z,9.18
2023-04-25T16:45:30.961Z,9.03
2023-04-25T16:48:02.282Z,8.78
2023-04-25T16:50:33.625Z,8.57
2023-04-25T16:53:04.952Z,7.49
2023-04-25T16:55:36.376Z,6.56
2023-04-25T16:58:09.956Z,6.12
2023-04-25T17:00:42.189Z,5.92
2023-04-25T17:03:13.634Z,5.92
2023-04-25T17:05:45.037Z,5.92
2023-04-25T17:08:16.387Z,5.93
2023-04-25T17:10:47.829Z,6.00
2023-04-25T17:13:19.159Z,6.24
2023-04-25T17:15:50.529Z,6.34
2023-04-25T17:18:24.395Z,6.28
2023-04-25T17:20:56.053Z,6.51
2023-04-25T17:23:27.420Z,6.49
2023-04-25T17:25:59.269Z,6.45
2023-04-25T17:28:30.963Z,6.34
2023-04-25T17:31:02.420Z,6.30
2023-04-25T17:33:33.832Z,6.46
2023-04-25T17:36:05.623Z,6.53
2023-04-25T17:38:38.874Z,6.58
2023-04-25T17:41:10.686Z,6.65
2023-04-25T17:43:42.008Z,6.67
2023-04-25T17:46:13.355Z,6.73
2023-04-25T17:48:44.765Z,6.67
2023-04-25T17:51:16.129Z,6.48
2023-04-25T17:53:47.735Z,6.47
2023-04-25T17:56:26.566Z,6.40
2023-04-25T17:58:59.055Z,6.36
2023-04-25T18:01:30.615Z,6.30
2023-04-25T18:04:04.190Z,6.28
2023-04-25T18:06:35.656Z,6.13
2023-04-25T18:09:16.018Z,6.16
2023-04-25T18:11:48.011Z,6.24
2023-04-25T18:14:20.580Z,6.16
2023-04-25T18:16:55.424Z,6.23
2023-04-25T18:19:26.939Z,6.11
2023-04-25T18:21:58.576Z,6.14
2023-04-25T18:24:29.934Z,6.10
2023-04-25T18:27:02.617Z,5.94
2023-04-25T18:29:34.357Z,5.96
2023-04-25T18:32:05.921Z,5.94
2023-04-25T18:34:37.300Z,5.86
2023-04-25T18:37:08.741Z,5.69
2023-04-25T18:39:41.033Z,5.74
2023-04-25T18:42:12.329Z,5.65
2023-04-25T18:44:43.706Z,5.64
2023-04-25T18:47:15.376Z,5.59
2023-04-25T18:49:47.750Z,5.47
2023-04-25T18:52:19.729Z,5.47
2023-04-25T18:54:51.038Z,5.46
2023-04-25T18:57:22.484Z,5.39
2023-04-25T18:59:53.936Z,5.43
2023-04-25T19:02:26.077Z,5.53
2023-04-25T19:04:57.616Z,5.65
2023-04-25T19:07:30.965Z,5.72
2023-04-25T19:10:04.153Z,5.82
2023-04-25T19:12:35.655Z,5.74
2023-04-25T19:15:07.697Z,5.94
2023-04-25T19:17:39.111Z,5.98
2023-04-25T19:20:11.035Z,5.99
2023-04-25T19:22:42.408Z,5.99
2023-04-25T19:25:13.709Z,5.84
2023-04-25T19:27:44.994Z,6.01
2023-04-25T19:30:16.606Z,5.95
2023-04-25T19:32:48.064Z,5.89
2023-04-25T19:35:19.408Z,5.63
2023-04-25T19:37:50.756Z,5.24
2023-04-25T19:40:22.808Z,5.22
2023-04-25T19:42:54.236Z,4.98
2023-04-25T19:45:25.706Z,4.83
2023-04-25T19:47:57.095Z,4.80
2023-04-25T19:50:28.539Z,4.75
2023-04-25T19:52:59.966Z,4.72
2023-04-25T19:55:31.923Z,4.71
2023-04-25T19:58:03.421Z,4.74
2023-04-25T20:00:35.178Z,4.74
2023-04-25T20:03:07.073Z,4.71
2023-04-25T20:05:38.453Z,4.60
2023-04-25T20:08:09.899Z,4.58
2023-04-25T20:10:41.763Z,4.54
2023-04-25T20:13:13.058Z,4.48
2023-04-25T20:15:44.350Z,4.33
2023-04-25T20:18:15.620Z,4.40
2023-04-25T20:20:47.036Z,4.39
2023-04-25T20:23:18.444Z,4.26
2023-04-25T20:25:50.420Z,4.36
2023-04-25T20:28:22.991Z,4.29
2023-04-25T20:30:54.453Z,4.39
2023-04-25T20:33:26.023Z,4.34
2023-04-25T20:35:57.424Z,4.35
2023-04-25T20:38:28.706Z,4.22
2023-04-25T20:41:00.379Z,4.10
2023-04-25T20:43:31.824Z,4.05
2023-04-25T20:46:04.217Z,4.14
2023-04-25T20:48:35.765Z,3.87
2023-04-25T20:51:07.220Z,3.99
2023-04-25T20:53:38.616Z,3.97
2023-04-25T20:56:10.843Z,4.01
2023-04-25T20:58:42.403Z,3.98
2023-04-25T21:01:13.814Z,3.94
2023-04-25T21:03:48.247Z,4.01
2023-04-25T21:06:19.746Z,4.11
2023-04-25T21:08:51.286Z,4.19
2023-04-25T21:11:23.519Z,4.24
2023-04-25T21:13:54.928Z,4.24
2023-04-25T21:16:26.265Z,4.21
2023-04-25T21:18:57.597Z,4.15
2023-04-25T21:21:29.033Z,4.07
2023-04-25T21:24:00.477Z,3.96
2023-04-25T21:26:31.821Z,3.92
2023-04-25T21:29:03.153Z,3.98
2023-04-25T21:31:37.470Z,4.06
2023-04-25T21:34:08.883Z,4.29
2023-04-25T21:36:41.282Z,4.37
2023-04-25T21:39:12.636Z,4.54
2023-04-25T21:41:44.301Z,4.55
2023-04-25T21:44:15.808Z,4.55
2023-04-25T21:46:47.129Z,4.26
2023-04-25T21:49:18.465Z,4.33
2023-04-25T21:51:49.743Z,4.24
2023-04-25T21:54:21.040Z,4.15
2023-04-25T21:56:52.347Z,3.94
2023-04-25T21:59:26.954Z,4.00
2023-04-25T22:01:58.445Z,3.90
2023-04-25T22:04:29.979Z,3.77
2023-04-25T22:07:02.013Z,3.81
2023-04-25T22:09:38.426Z,3.75
2023-04-25T22:12:19.002Z,3.67
2023-04-25T22:14:50.604Z,3.63
2023-04-25T22:17:25.714Z,3.40
2023-04-25T22:19:57.055Z,3.53
2023-04-25T22:22:28.504Z,3.44
2023-04-25T22:25:00.413Z,3.37
2023-04-25T22:27:32.345Z,3.28
2023-04-25T22:30:04.642Z,3.42
2023-04-25T22:32:36.544Z,3.18
2023-04-25T22:35:08.309Z,3.28
2023-04-25T22:37:41.276Z,3.06
2023-04-25T22:40:13.239Z,3.10
2023-04-25T22:42:44.692Z,3.25
2023-04-25T22:45:17.068Z,3.02
2023-04-25T22:47:48.355Z,3.20
2023-04-25T22:50:20.376Z,3.19
2023-04-25T22:52:51.658Z,3.12
2023-04-25T22:55:23.063Z,3.06
2023-04-25T22:57:54.731Z,3.15
2023-04-25T23:00:28.892Z,3.01
2023-04-25T23:03:00.432Z,3.09
2023-04-25T23:05:32.773Z,2.95
2023-04-25T23:08:05.384Z,3.08
2023-04-25T23:10:37.412Z,3.07
2023-04-25T23:13:08.709Z,2.98
2023-04-25T23:15:40.257Z,3.09
2023-04-25T23:18:11.782Z,3.09
2023-04-25T23:20:43.100Z,3.36
2023-04-25T23:23:14.772Z,3.53
2023-04-25T23:25:46.144Z,3.67
2023-04-25T23:28:17.689Z,3.72
2023-04-25T23:30:49.022Z,3.77
2023-04-25T23:33:20.381Z,3.64
2023-04-25T23:35:51.726Z,3.72
2023-04-25T23:38:23.016Z,3.83
2023-04-25T23:40:54.319Z,3.67
2023-04-25T23:43:25.810Z,3.78
2023-04-25T23:45:57.107Z,3.64
2023-04-25T23:48:28.442Z,3.63
2023-04-25T23:51:00.722Z,3.54
2023-04-25T23:53:32.012Z,3.47
2023-04-25T23:56:05.090Z,3.41
2023-04-25T23:58:36.670Z,3.35
